sensor_id;sensor_type;location;lat;lon;timestamp;P1;durP1;ratioP1;P2;durP2;ratioP2
3712;SDS011;1872;51.406;6.856;2024-01-11T00:02:13;45.30;;;24.10;;
3712;SDS011;1872;51.406;6.856;2024-01-11T00:04:39;37.17;;;22.77;;
3712;SDS011;1872;51.406;6.856;2024-01-11T00:07:05;38.75;;;21.73;;
3712;SDS011;1872;51.406;6.856;2024-01-11T00:09:31;36.77;;;22.63;;
3712;SDS011;1872;51.406;6.856;2024-01-11T00:11:57;38.60;;;22.43;;
3712;SDS011;1872;51.406;6.856;2024-01-11T00:14:22;40.97;;;23.27;;
3712;SDS011;1872;51.406;6.856;2024-01-11T00:16:49;38.90;;;23.90;;
3712;SDS011;1872;51.406;6.856;2024-01-11T00:19:15;39.63;;;21.30;;
3712;SDS011;1872;51.406;6.856;2024-01-11T00:21:40;44.03;;;24.40;;
3712;SDS011;1872;51.406;6.856;2024-01-11T00:24:06;35.17;;;22.20;;
3712;SDS011;1872;51.406;6.856;2024-01-11T00:26:32;38.38;;;22.88;;
3712;SDS011;1872;51.406;6.856;2024-01-11T00:28:58;41.33;;;23.67;;
3712;SDS011;1872;51.406;6.856;2024-01-11T00:31:24;43.00;;;24.70;;
3712;SDS011;1872;51.406;6.856;2024-01-11T00:33:50;42.17;;;25.05;;
3712;SDS011;1872;51.406;6.856;2024-01-11T00:36:19;41.53;;;22.57;;
3712;SDS011;1872;51.406;6.856;2024-01-11T00:38:47;42.85;;;24.83;;
3712;SDS011;1872;51.406;6.856;2024-01-11T00:41:14;37.60;;;24.60;;
3712;SDS011;1872;51.406;6.856;2024-01-11T00:43:40;37.70;;;22.98;;
3712;SDS011;1872;51.406;6.856;2024-01-11T00:46:05;37.87;;;21.93;;
3712;SDS011;1872;51.406;6.856;2024-01-11T00:48:31;37.43;;;23.07;;
3712;SDS011;1872;51.406;6.856;2024-01-11T00:50:56;38.43;;;22.47;;
3712;SDS011;1872;51.406;6.856;2024-01-11T00:53:22;38.70;;;23.13;;
3712;SDS011;1872;51.406;6.856;2024-01-11T00:55:48;37.07;;;22.20;;
3712;SDS011;1872;51.406;6.856;2024-01-11T00:58:13;44.40;;;25.00;;
3712;SDS011;1872;51.406;6.856;2024-01-11T01:00:39;40.60;;;22.73;;
3712;SDS011;1872;51.406;6.856;2024-01-11T01:03:05;42.00;;;23.25;;
3712;SDS011;1872;51.406;6.856;2024-01-11T01:05:31;46.30;;;23.10;;
3712;SDS011;1872;51.406;6.856;2024-01-11T01:07:57;43.20;;;22.17;;
3712;SDS011;1872;51.406;6.856;2024-01-11T01:10:23;39.53;;;22.57;;
3712;SDS011;1872;51.406;6.856;2024-01-11T01:12:48;40.53;;;22.10;;
3712;SDS011;1872;51.406;6.856;2024-01-11T01:15:14;47.70;;;24.57;;
3712;SDS011;1872;51.406;6.856;2024-01-11T01:17:40;38.93;;;21.80;;
3712;SDS011;1872;51.406;6.856;2024-01-11T01:20:06;35.35;;;23.52;;
3712;SDS011;1872;51.406;6.856;2024-01-11T01:22:32;41.17;;;25.23;;
3712;SDS011;1872;51.406;6.856;2024-01-11T01:24:58;33.50;;;23.07;;
3712;SDS011;1872;51.406;6.856;2024-01-11T01:27:23;50.30;;;24.47;;
3712;SDS011;1872;51.406;6.856;2024-01-11T01:29:49;39.03;;;22.67;;
3712;SDS011;1872;51.406;6.856;2024-01-11T01:32:15;34.40;;;22.90;;
3712;SDS011;1872;51.406;6.856;2024-01-11T01:34:40;41.60;;;24.67;;
3712;SDS011;1872;51.406;6.856;2024-01-11T01:37:06;44.53;;;23.30;;
3712;SDS011;1872;51.406;6.856;2024-01-11T01:39:32;39.10;;;22.77;;
3712;SDS011;1872;51.406;6.856;2024-01-11T01:41:57;40.07;;;23.47;;
3712;SDS011;1872;51.406;6.856;2024-01-11T01:44:23;46.33;;;25.13;;
3712;SDS011;1872;51.406;6.856;2024-01-11T01:46:49;44.27;;;24.37;;
3712;SDS011;1872;51.406;6.856;2024-01-11T01:49:16;46.92;;;24.00;;
3712;SDS011;1872;51.406;6.856;2024-01-11T01:51:47;41.53;;;24.30;;
3712;SDS011;1872;51.406;6.856;2024-01-11T01:54:13;42.80;;;24.30;;
3712;SDS011;1872;51.406;6.856;2024-01-11T01:56:39;47.55;;;23.52;;
3712;SDS011;1872;51.406;6.856;2024-01-11T01:59:05;38.70;;;23.00;;
3712;SDS011;1872;51.406;6.856;2024-01-11T02:01:31;48.27;;;24.37;;
3712;SDS011;1872;51.406;6.856;2024-01-11T02:03:58;47.63;;;24.80;;
3712;SDS011;1872;51.406;6.856;2024-01-11T02:06:25;40.40;;;24.13;;
3712;SDS011;1872;51.406;6.856;2024-01-11T02:08:51;42.20;;;24.15;;
3712;SDS011;1872;51.406;6.856;2024-01-11T02:11:20;39.30;;;24.50;;
3712;SDS011;1872;51.406;6.856;2024-01-11T02:13:48;46.78;;;23.35;;
3712;SDS011;1872;51.406;6.856;2024-01-11T02:16:16;43.97;;;24.88;;
3712;SDS011;1872;51.406;6.856;2024-01-11T02:18:42;44.50;;;24.37;;
3712;SDS011;1872;51.406;6.856;2024-01-11T02:21:08;39.10;;;23.53;;
3712;SDS011;1872;51.406;6.856;2024-01-11T02:23:40;37.15;;;22.45;;
3712;SDS011;1872;51.406;6.856;2024-01-11T02:26:11;36.63;;;22.25;;
3712;SDS011;1872;51.406;6.856;2024-01-11T02:28:37;45.80;;;24.10;;
3712;SDS011;1872;51.406;6.856;2024-01-11T02:31:03;42.97;;;23.87;;
3712;SDS011;1872;51.406;6.856;2024-01-11T02:33:28;43.33;;;23.23;;
3712;SDS011;1872;51.406;6.856;2024-01-11T02:35:54;41.23;;;24.80;;
3712;SDS011;1872;51.406;6.856;2024-01-11T02:38:21;43.90;;;23.50;;
3712;SDS011;1872;51.406;6.856;2024-01-11T02:40:46;40.67;;;22.30;;
3712;SDS011;1872;51.406;6.856;2024-01-11T02:43:14;45.28;;;24.00;;
3712;SDS011;1872;51.406;6.856;2024-01-11T02:45:40;41.03;;;24.63;;
3712;SDS011;1872;51.406;6.856;2024-01-11T02:48:05;41.70;;;25.20;;
3712;SDS011;1872;51.406;6.856;2024-01-11T02:50:31;46.90;;;25.73;;
3712;SDS011;1872;51.406;6.856;2024-01-11T02:52:57;45.85;;;24.85;;
3712;SDS011;1872;51.406;6.856;2024-01-11T02:55:23;40.97;;;23.37;;
3712;SDS011;1872;51.406;6.856;2024-01-11T02:57:48;45.40;;;24.17;;
3712;SDS011;1872;51.406;6.856;2024-01-11T03:00:14;37.97;;;22.23;;
3712;SDS011;1872;51.406;6.856;2024-01-11T03:02:40;42.60;;;23.33;;
3712;SDS011;1872;51.406;6.856;2024-01-11T03:05:06;39.63;;;23.17;;
3712;SDS011;1872;51.406;6.856;2024-01-11T03:07:31;44.90;;;25.37;;
3712;SDS011;1872;51.406;6.856;2024-01-11T03:09:58;44.67;;;24.80;;
3712;SDS011;1872;51.406;6.856;2024-01-11T03:12:23;52.73;;;26.47;;
3712;SDS011;1872;51.406;6.856;2024-01-11T03:14:51;41.42;;;24.02;;
3712;SDS011;1872;51.406;6.856;2024-01-11T03:17:17;40.23;;;22.70;;
3712;SDS011;1872;51.406;6.856;2024-01-11T03:19:42;45.07;;;26.17;;
3712;SDS011;1872;51.406;6.856;2024-01-11T03:22:08;37.23;;;24.33;;
3712;SDS011;1872;51.406;6.856;2024-01-11T03:24:37;43.80;;;24.47;;
3712;SDS011;1872;51.406;6.856;2024-01-11T03:27:04;46.33;;;24.45;;
3712;SDS011;1872;51.406;6.856;2024-01-11T03:29:30;43.00;;;25.42;;
3712;SDS011;1872;51.406;6.856;2024-01-11T03:31:56;46.73;;;26.00;;
3712;SDS011;1872;51.406;6.856;2024-01-11T03:34:22;43.27;;;22.60;;
3712;SDS011;1872;51.406;6.856;2024-01-11T03:36:47;44.30;;;23.80;;
3712;SDS011;1872;51.406;6.856;2024-01-11T03:39:13;43.93;;;23.80;;
3712;SDS011;1872;51.406;6.856;2024-01-11T03:41:45;37.77;;;22.90;;
3712;SDS011;1872;51.406;6.856;2024-01-11T03:44:12;48.85;;;25.63;;
3712;SDS011;1872;51.406;6.856;2024-01-11T03:46:38;38.70;;;23.13;;
3712;SDS011;1872;51.406;6.856;2024-01-11T03:49:04;37.80;;;21.37;;
3712;SDS011;1872;51.406;6.856;2024-01-11T03:51:29;45.80;;;25.13;;
3712;SDS011;1872;51.406;6.856;2024-01-11T03:53:55;47.27;;;24.23;;
3712;SDS011;1872;51.406;6.856;2024-01-11T03:56:21;43.30;;;23.90;;
3712;SDS011;1872;51.406;6.856;2024-01-11T03:58:46;39.47;;;23.60;;
3712;SDS011;1872;51.406;6.856;2024-01-11T04:01:12;45.50;;;24.90;;
3712;SDS011;1872;51.406;6.856;2024-01-11T04:03:37;57.10;;;24.13;;
3712;SDS011;1872;51.406;6.856;2024-01-11T04:06:03;46.90;;;24.07;;
3712;SDS011;1872;51.406;6.856;2024-01-11T04:08:30;49.53;;;24.20;;
3712;SDS011;1872;51.406;6.856;2024-01-11T04:10:55;46.83;;;25.57;;
3712;SDS011;1872;51.406;6.856;2024-01-11T04:13:21;42.50;;;24.40;;
3712;SDS011;1872;51.406;6.856;2024-01-11T04:15:47;43.83;;;24.40;;
3712;SDS011;1872;51.406;6.856;2024-01-11T04:18:13;45.00;;;24.60;;
3712;SDS011;1872;51.406;6.856;2024-01-11T04:20:39;44.45;;;23.42;;
3712;SDS011;1872;51.406;6.856;2024-01-11T04:23:05;40.73;;;23.60;;
3712;SDS011;1872;51.406;6.856;2024-01-11T04:25:31;48.42;;;23.38;;
3712;SDS011;1872;51.406;6.856;2024-01-11T04:27:57;38.83;;;24.10;;
3712;SDS011;1872;51.406;6.856;2024-01-11T04:30:22;37.10;;;22.17;;
3712;SDS011;1872;51.406;6.856;2024-01-11T04:32:48;43.00;;;23.40;;
3712;SDS011;1872;51.406;6.856;2024-01-11T04:35:13;44.97;;;22.67;;
3712;SDS011;1872;51.406;6.856;2024-01-11T04:37:39;49.10;;;25.80;;
3712;SDS011;1872;51.406;6.856;2024-01-11T04:40:06;45.60;;;23.90;;
3712;SDS011;1872;51.406;6.856;2024-01-11T04:42:32;48.53;;;25.52;;
3712;SDS011;1872;51.406;6.856;2024-01-11T04:44:58;45.73;;;24.27;;
3712;SDS011;1872;51.406;6.856;2024-01-11T04:47:23;38.47;;;22.37;;
3712;SDS011;1872;51.406;6.856;2024-01-11T04:49:49;44.93;;;24.00;;
3712;SDS011;1872;51.406;6.856;2024-01-11T04:52:15;45.80;;;24.17;;
3712;SDS011;1872;51.406;6.856;2024-01-11T04:54:40;50.13;;;27.03;;
3712;SDS011;1872;51.406;6.856;2024-01-11T04:57:06;41.23;;;22.67;;
3712;SDS011;1872;51.406;6.856;2024-01-11T04:59:32;52.40;;;25.07;;
3712;SDS011;1872;51.406;6.856;2024-01-11T05:01:59;51.73;;;25.70;;
3712;SDS011;1872;51.406;6.856;2024-01-11T05:04:24;39.25;;;23.13;;
3712;SDS011;1872;51.406;6.856;2024-01-11T05:06:51;36.73;;;22.33;;
3712;SDS011;1872;51.406;6.856;2024-01-11T05:09:16;42.40;;;23.50;;
3712;SDS011;1872;51.406;6.856;2024-01-11T05:11:43;40.77;;;23.43;;
3712;SDS011;1872;51.406;6.856;2024-01-11T05:14:09;40.15;;;24.02;;
3712;SDS011;1872;51.406;6.856;2024-01-11T05:16:34;39.70;;;22.77;;
3712;SDS011;1872;51.406;6.856;2024-01-11T05:19:00;45.83;;;23.00;;
3712;SDS011;1872;51.406;6.856;2024-01-11T05:21:26;35.27;;;21.50;;
3712;SDS011;1872;51.406;6.856;2024-01-11T05:23:52;48.77;;;27.20;;
3712;SDS011;1872;51.406;6.856;2024-01-11T05:26:18;54.80;;;23.87;;
3712;SDS011;1872;51.406;6.856;2024-01-11T05:28:44;40.47;;;23.55;;
3712;SDS011;1872;51.406;6.856;2024-01-11T05:31:11;44.20;;;24.77;;
3712;SDS011;1872;51.406;6.856;2024-01-11T05:33:38;41.83;;;23.20;;
3712;SDS011;1872;51.406;6.856;2024-01-11T05:36:04;43.05;;;24.83;;
3712;SDS011;1872;51.406;6.856;2024-01-11T05:38:30;41.38;;;23.52;;
3712;SDS011;1872;51.406;6.856;2024-01-11T05:40:56;47.90;;;24.57;;
3712;SDS011;1872;51.406;6.856;2024-01-11T05:43:22;46.53;;;22.90;;
3712;SDS011;1872;51.406;6.856;2024-01-11T05:45:49;45.47;;;24.50;;
3712;SDS011;1872;51.406;6.856;2024-01-11T05:48:16;41.55;;;23.92;;
3712;SDS011;1872;51.406;6.856;2024-01-11T05:50:42;48.70;;;25.15;;
3712;SDS011;1872;51.406;6.856;2024-01-11T05:53:08;44.05;;;24.50;;
3712;SDS011;1872;51.406;6.856;2024-01-11T05:55:34;41.03;;;22.10;;
3712;SDS011;1872;51.406;6.856;2024-01-11T05:58:00;44.33;;;23.47;;
3712;SDS011;1872;51.406;6.856;2024-01-11T06:00:26;43.38;;;21.63;;
3712;SDS011;1872;51.406;6.856;2024-01-11T06:02:51;42.50;;;22.87;;
3712;SDS011;1872;51.406;6.856;2024-01-11T06:05:17;44.97;;;25.70;;
3712;SDS011;1872;51.406;6.856;2024-01-11T06:07:43;39.77;;;23.47;;
3712;SDS011;1872;51.406;6.856;2024-01-11T06:10:08;41.57;;;20.33;;
3712;SDS011;1872;51.406;6.856;2024-01-11T06:12:35;36.42;;;22.55;;
3712;SDS011;1872;51.406;6.856;2024-01-11T06:15:01;42.57;;;23.60;;
3712;SDS011;1872;51.406;6.856;2024-01-11T06:17:27;45.65;;;22.50;;
3712;SDS011;1872;51.406;6.856;2024-01-11T06:19:53;41.93;;;23.67;;
3712;SDS011;1872;51.406;6.856;2024-01-11T06:22:19;38.90;;;23.52;;
3712;SDS011;1872;51.406;6.856;2024-01-11T06:24:45;41.77;;;24.57;;
3712;SDS011;1872;51.406;6.856;2024-01-11T06:27:11;40.80;;;24.50;;
3712;SDS011;1872;51.406;6.856;2024-01-11T06:29:37;42.77;;;22.50;;
3712;SDS011;1872;51.406;6.856;2024-01-11T06:32:04;48.63;;;26.50;;
3712;SDS011;1872;51.406;6.856;2024-01-11T06:34:30;47.95;;;24.25;;
3712;SDS011;1872;51.406;6.856;2024-01-11T06:36:55;45.37;;;24.60;;
3712;SDS011;1872;51.406;6.856;2024-01-11T06:39:21;43.33;;;22.63;;
3712;SDS011;1872;51.406;6.856;2024-01-11T06:41:47;49.47;;;25.47;;
3712;SDS011;1872;51.406;6.856;2024-01-11T06:44:13;48.37;;;24.70;;
3712;SDS011;1872;51.406;6.856;2024-01-11T06:46:39;51.55;;;25.45;;
3712;SDS011;1872;51.406;6.856;2024-01-11T06:49:06;43.58;;;24.25;;
3712;SDS011;1872;51.406;6.856;2024-01-11T06:51:32;45.15;;;24.38;;
3712;SDS011;1872;51.406;6.856;2024-01-11T06:53:59;47.00;;;23.67;;
3712;SDS011;1872;51.406;6.856;2024-01-11T06:56:26;48.53;;;25.02;;
3712;SDS011;1872;51.406;6.856;2024-01-11T06:58:52;46.60;;;25.27;;
3712;SDS011;1872;51.406;6.856;2024-01-11T07:01:19;49.35;;;26.10;;
3712;SDS011;1872;51.406;6.856;2024-01-11T07:03:44;39.50;;;25.30;;
3712;SDS011;1872;51.406;6.856;2024-01-11T07:06:10;44.90;;;24.37;;
3712;SDS011;1872;51.406;6.856;2024-01-11T07:08:39;48.67;;;26.27;;
3712;SDS011;1872;51.406;6.856;2024-01-11T07:11:04;54.88;;;28.27;;
3712;SDS011;1872;51.406;6.856;2024-01-11T07:13:30;43.10;;;25.17;;
3712;SDS011;1872;51.406;6.856;2024-01-11T07:15:56;42.40;;;25.90;;
3712;SDS011;1872;51.406;6.856;2024-01-11T07:18:23;46.88;;;26.02;;
3712;SDS011;1872;51.406;6.856;2024-01-11T07:20:50;46.38;;;26.92;;
3712;SDS011;1872;51.406;6.856;2024-01-11T07:23:16;46.03;;;23.98;;
3712;SDS011;1872;51.406;6.856;2024-01-11T07:25:42;50.17;;;26.50;;
3712;SDS011;1872;51.406;6.856;2024-01-11T07:28:09;47.30;;;25.50;;
3712;SDS011;1872;51.406;6.856;2024-01-11T07:30:35;43.67;;;25.27;;
3712;SDS011;1872;51.406;6.856;2024-01-11T07:33:00;44.67;;;25.90;;
3712;SDS011;1872;51.406;6.856;2024-01-11T07:35:26;44.07;;;25.70;;
3712;SDS011;1872;51.406;6.856;2024-01-11T07:37:52;44.70;;;24.63;;
3712;SDS011;1872;51.406;6.856;2024-01-11T07:40:18;37.63;;;23.20;;
3712;SDS011;1872;51.406;6.856;2024-01-11T07:42:44;44.17;;;24.93;;
3712;SDS011;1872;51.406;6.856;2024-01-11T07:45:11;45.28;;;24.23;;
3712;SDS011;1872;51.406;6.856;2024-01-11T07:47:37;43.03;;;24.63;;
3712;SDS011;1872;51.406;6.856;2024-01-11T07:50:03;46.97;;;24.35;;
3712;SDS011;1872;51.406;6.856;2024-01-11T07:52:32;49.25;;;24.77;;
3712;SDS011;1872;51.406;6.856;2024-01-11T07:54:58;42.55;;;25.45;;
3712;SDS011;1872;51.406;6.856;2024-01-11T07:57:31;43.58;;;24.52;;
3712;SDS011;1872;51.406;6.856;2024-01-11T07:59:59;40.08;;;24.95;;
3712;SDS011;1872;51.406;6.856;2024-01-11T08:02:25;47.90;;;26.80;;
3712;SDS011;1872;51.406;6.856;2024-01-11T08:04:50;43.40;;;24.33;;
3712;SDS011;1872;51.406;6.856;2024-01-11T08:07:16;45.43;;;25.37;;
3712;SDS011;1872;51.406;6.856;2024-01-11T08:09:43;46.00;;;27.33;;
3712;SDS011;1872;51.406;6.856;2024-01-11T08:12:12;47.25;;;25.38;;
3712;SDS011;1872;51.406;6.856;2024-01-11T08:14:38;41.40;;;25.83;;
3712;SDS011;1872;51.406;6.856;2024-01-11T08:17:04;44.90;;;26.20;;
3712;SDS011;1872;51.406;6.856;2024-01-11T08:19:33;43.10;;;25.00;;
3712;SDS011;1872;51.406;6.856;2024-01-11T08:21:59;51.55;;;26.17;;
3712;SDS011;1872;51.406;6.856;2024-01-11T08:24:26;46.58;;;26.63;;
3712;SDS011;1872;51.406;6.856;2024-01-11T08:26:51;50.63;;;26.60;;
3712;SDS011;1872;51.406;6.856;2024-01-11T08:29:17;47.83;;;27.63;;
3712;SDS011;1872;51.406;6.856;2024-01-11T08:31:47;47.10;;;26.17;;
3712;SDS011;1872;51.406;6.856;2024-01-11T08:34:13;44.53;;;25.67;;
3712;SDS011;1872;51.406;6.856;2024-01-11T08:36:38;42.80;;;25.27;;
3712;SDS011;1872;51.406;6.856;2024-01-11T08:39:04;47.13;;;26.57;;
3712;SDS011;1872;51.406;6.856;2024-01-11T08:41:31;45.60;;;27.20;;
3712;SDS011;1872;51.406;6.856;2024-01-11T08:44:06;43.88;;;27.50;;
3712;SDS011;1872;51.406;6.856;2024-01-11T08:46:31;46.73;;;27.13;;
3712;SDS011;1872;51.406;6.856;2024-01-11T08:49:01;48.13;;;26.30;;
3712;SDS011;1872;51.406;6.856;2024-01-11T08:51:28;42.35;;;25.73;;
3712;SDS011;1872;51.406;6.856;2024-01-11T08:53:54;50.53;;;28.05;;
3712;SDS011;1872;51.406;6.856;2024-01-11T08:56:21;45.47;;;26.63;;
3712;SDS011;1872;51.406;6.856;2024-01-11T08:58:47;50.92;;;28.20;;
3712;SDS011;1872;51.406;6.856;2024-01-11T09:01:15;51.50;;;28.60;;
3712;SDS011;1872;51.406;6.856;2024-01-11T09:03:43;57.95;;;28.02;;
3712;SDS011;1872;51.406;6.856;2024-01-11T09:06:09;47.50;;;27.90;;
3712;SDS011;1872;51.406;6.856;2024-01-11T09:08:36;46.63;;;27.83;;
3712;SDS011;1872;51.406;6.856;2024-01-11T09:11:02;43.90;;;27.25;;
3712;SDS011;1872;51.406;6.856;2024-01-11T09:13:28;46.90;;;27.13;;
3712;SDS011;1872;51.406;6.856;2024-01-11T09:15:54;47.47;;;28.25;;
3712;SDS011;1872;51.406;6.856;2024-01-11T09:18:21;50.65;;;28.85;;
3712;SDS011;1872;51.406;6.856;2024-01-11T09:20:46;48.07;;;25.90;;
3712;SDS011;1872;51.406;6.856;2024-01-11T09:23:12;43.90;;;26.17;;
3712;SDS011;1872;51.406;6.856;2024-01-11T09:25:38;54.07;;;29.40;;
3712;SDS011;1872;51.406;6.856;2024-01-11T09:28:04;57.67;;;29.80;;
3712;SDS011;1872;51.406;6.856;2024-01-11T09:30:30;49.40;;;28.30;;
3712;SDS011;1872;51.406;6.856;2024-01-11T09:32:56;47.93;;;26.20;;
3712;SDS011;1872;51.406;6.856;2024-01-11T09:35:22;44.40;;;27.77;;
3712;SDS011;1872;51.406;6.856;2024-01-11T09:37:48;50.08;;;28.77;;
3712;SDS011;1872;51.406;6.856;2024-01-11T09:40:14;48.35;;;26.80;;
3712;SDS011;1872;51.406;6.856;2024-01-11T09:42:42;48.97;;;28.17;;
3712;SDS011;1872;51.406;6.856;2024-01-11T09:45:14;50.17;;;28.67;;
3712;SDS011;1872;51.406;6.856;2024-01-11T09:47:41;51.30;;;28.60;;
3712;SDS011;1872;51.406;6.856;2024-01-11T09:50:09;45.58;;;26.80;;
3712;SDS011;1872;51.406;6.856;2024-01-11T09:52:35;53.33;;;29.23;;
3712;SDS011;1872;51.406;6.856;2024-01-11T09:55:04;50.65;;;27.88;;
3712;SDS011;1872;51.406;6.856;2024-01-11T09:57:31;54.17;;;29.65;;
3712;SDS011;1872;51.406;6.856;2024-01-11T09:59:59;48.92;;;28.90;;
3712;SDS011;1872;51.406;6.856;2024-01-11T10:02:29;52.83;;;29.33;;
3712;SDS011;1872;51.406;6.856;2024-01-11T10:04:55;51.50;;;30.20;;
3712;SDS011;1872;51.406;6.856;2024-01-11T10:07:22;50.35;;;27.98;;
3712;SDS011;1872;51.406;6.856;2024-01-11T10:09:49;56.28;;;29.42;;
3712;SDS011;1872;51.406;6.856;2024-01-11T10:12:17;54.40;;;29.25;;
3712;SDS011;1872;51.406;6.856;2024-01-11T10:14:45;55.38;;;29.35;;
3712;SDS011;1872;51.406;6.856;2024-01-11T10:17:12;53.47;;;30.40;;
3712;SDS011;1872;51.406;6.856;2024-01-11T10:19:37;47.47;;;28.90;;
3712;SDS011;1872;51.406;6.856;2024-01-11T10:22:03;53.67;;;30.43;;
3712;SDS011;1872;51.406;6.856;2024-01-11T10:24:30;56.15;;;29.35;;
3712;SDS011;1872;51.406;6.856;2024-01-11T10:26:56;51.73;;;28.23;;
3712;SDS011;1872;51.406;6.856;2024-01-11T10:29:22;49.53;;;28.98;;
3712;SDS011;1872;51.406;6.856;2024-01-11T10:31:52;60.80;;;29.88;;
3712;SDS011;1872;51.406;6.856;2024-01-11T10:34:18;55.07;;;29.70;;
3712;SDS011;1872;51.406;6.856;2024-01-11T10:36:45;48.42;;;27.60;;
3712;SDS011;1872;51.406;6.856;2024-01-11T10:39:11;52.27;;;27.80;;
3712;SDS011;1872;51.406;6.856;2024-01-11T10:41:40;49.42;;;28.70;;
3712;SDS011;1872;51.406;6.856;2024-01-11T10:44:16;51.58;;;28.52;;
3712;SDS011;1872;51.406;6.856;2024-01-11T10:46:45;50.25;;;28.30;;
3712;SDS011;1872;51.406;6.856;2024-01-11T10:49:11;48.90;;;27.30;;
3712;SDS011;1872;51.406;6.856;2024-01-11T10:51:52;40.45;;;26.02;;
3712;SDS011;1872;51.406;6.856;2024-01-11T10:54:20;44.13;;;25.77;;
3712;SDS011;1872;51.406;6.856;2024-01-11T10:56:47;51.50;;;28.67;;
3712;SDS011;1872;51.406;6.856;2024-01-11T10:59:14;46.25;;;26.83;;
3712;SDS011;1872;51.406;6.856;2024-01-11T11:01:41;51.92;;;29.00;;
3712;SDS011;1872;51.406;6.856;2024-01-11T11:04:08;44.20;;;26.97;;
3712;SDS011;1872;51.406;6.856;2024-01-11T11:06:34;41.22;;;26.13;;
3712;SDS011;1872;51.406;6.856;2024-01-11T11:09:02;46.67;;;26.47;;
3712;SDS011;1872;51.406;6.856;2024-01-11T11:11:30;39.17;;;26.55;;
3712;SDS011;1872;51.406;6.856;2024-01-11T11:13:58;43.17;;;26.33;;
3712;SDS011;1872;51.406;6.856;2024-01-11T11:16:26;42.85;;;27.20;;
3712;SDS011;1872;51.406;6.856;2024-01-11T11:18:53;46.78;;;26.83;;
3712;SDS011;1872;51.406;6.856;2024-01-11T11:21:19;45.90;;;26.27;;
3712;SDS011;1872;51.406;6.856;2024-01-11T11:23:46;50.57;;;26.53;;
3712;SDS011;1872;51.406;6.856;2024-01-11T11:26:15;47.97;;;27.30;;
3712;SDS011;1872;51.406;6.856;2024-01-11T11:28:42;38.70;;;25.95;;
3712;SDS011;1872;51.406;6.856;2024-01-11T11:31:08;43.25;;;26.05;;
3712;SDS011;1872;51.406;6.856;2024-01-11T11:33:36;46.58;;;25.85;;
3712;SDS011;1872;51.406;6.856;2024-01-11T11:36:02;38.77;;;25.60;;
3712;SDS011;1872;51.406;6.856;2024-01-11T11:38:29;41.87;;;25.10;;
3712;SDS011;1872;51.406;6.856;2024-01-11T11:40:56;39.00;;;24.98;;
3712;SDS011;1872;51.406;6.856;2024-01-11T11:43:24;44.57;;;26.40;;
3712;SDS011;1872;51.406;6.856;2024-01-11T11:45:52;48.83;;;25.50;;
3712;SDS011;1872;51.406;6.856;2024-01-11T11:53:35;43.00;;;24.40;;
3712;SDS011;1872;51.406;6.856;2024-01-11T11:56:03;39.20;;;25.50;;
3712;SDS011;1872;51.406;6.856;2024-01-11T11:58:29;44.23;;;25.10;;
3712;SDS011;1872;51.406;6.856;2024-01-11T12:00:59;41.17;;;23.97;;
3712;SDS011;1872;51.406;6.856;2024-01-11T12:03:33;45.17;;;24.90;;
3712;SDS011;1872;51.406;6.856;2024-01-11T12:06:03;37.97;;;25.00;;
3712;SDS011;1872;51.406;6.856;2024-01-11T12:08:30;46.00;;;26.27;;
3712;SDS011;1872;51.406;6.856;2024-01-11T12:10:57;44.53;;;27.03;;
3712;SDS011;1872;51.406;6.856;2024-01-11T12:13:23;43.13;;;26.43;;
3712;SDS011;1872;51.406;6.856;2024-01-11T12:15:49;44.97;;;25.57;;
3712;SDS011;1872;51.406;6.856;2024-01-11T12:18:15;38.67;;;24.77;;
3712;SDS011;1872;51.406;6.856;2024-01-11T12:20:41;43.00;;;25.70;;
3712;SDS011;1872;51.406;6.856;2024-01-11T12:23:07;33.63;;;23.80;;
3712;SDS011;1872;51.406;6.856;2024-01-11T12:25:33;38.90;;;24.50;;
3712;SDS011;1872;51.406;6.856;2024-01-11T12:27:59;38.77;;;22.93;;
3712;SDS011;1872;51.406;6.856;2024-01-11T12:30:25;36.33;;;23.10;;
3712;SDS011;1872;51.406;6.856;2024-01-11T12:32:52;46.07;;;25.37;;
3712;SDS011;1872;51.406;6.856;2024-01-11T12:35:19;41.73;;;25.87;;
3712;SDS011;1872;51.406;6.856;2024-01-11T12:37:55;37.97;;;24.83;;
3712;SDS011;1872;51.406;6.856;2024-01-11T12:40:23;44.57;;;24.90;;
3712;SDS011;1872;51.406;6.856;2024-01-11T12:42:49;42.23;;;25.33;;
3712;SDS011;1872;51.406;6.856;2024-01-11T12:45:18;46.13;;;24.90;;
3712;SDS011;1872;51.406;6.856;2024-01-11T12:47:45;44.47;;;24.20;;
3712;SDS011;1872;51.406;6.856;2024-01-11T12:50:11;47.30;;;25.30;;
3712;SDS011;1872;51.406;6.856;2024-01-11T12:52:37;41.17;;;24.43;;
3712;SDS011;1872;51.406;6.856;2024-01-11T12:55:04;40.43;;;23.63;;
3712;SDS011;1872;51.406;6.856;2024-01-11T12:57:32;40.70;;;24.43;;
3712;SDS011;1872;51.406;6.856;2024-01-11T13:00:08;33.63;;;22.57;;
3712;SDS011;1872;51.406;6.856;2024-01-11T13:02:35;34.47;;;22.00;;
3712;SDS011;1872;51.406;6.856;2024-01-11T13:05:02;41.83;;;23.70;;
3712;SDS011;1872;51.406;6.856;2024-01-11T13:07:28;39.80;;;22.07;;
3712;SDS011;1872;51.406;6.856;2024-01-11T13:09:55;33.00;;;21.53;;
3712;SDS011;1872;51.406;6.856;2024-01-11T13:12:21;40.30;;;21.87;;
3712;SDS011;1872;51.406;6.856;2024-01-11T13:14:47;36.07;;;21.60;;
3712;SDS011;1872;51.406;6.856;2024-01-11T13:17:13;32.10;;;20.90;;
3712;SDS011;1872;51.406;6.856;2024-01-11T13:19:39;35.70;;;20.80;;
3712;SDS011;1872;51.406;6.856;2024-01-11T13:22:05;32.20;;;20.30;;
3712;SDS011;1872;51.406;6.856;2024-01-11T13:24:30;31.03;;;20.23;;
3712;SDS011;1872;51.406;6.856;2024-01-11T13:26:56;26.60;;;19.70;;
3712;SDS011;1872;51.406;6.856;2024-01-11T13:29:22;38.10;;;20.07;;
3712;SDS011;1872;51.406;6.856;2024-01-11T13:31:47;31.93;;;20.30;;
3712;SDS011;1872;51.406;6.856;2024-01-11T13:34:13;39.73;;;23.53;;
3712;SDS011;1872;51.406;6.856;2024-01-11T13:36:38;39.40;;;24.87;;
3712;SDS011;1872;51.406;6.856;2024-01-11T13:39:04;37.73;;;22.57;;
3712;SDS011;1872;51.406;6.856;2024-01-11T13:41:33;34.47;;;22.17;;
3712;SDS011;1872;51.406;6.856;2024-01-11T13:43:59;35.07;;;22.00;;
3712;SDS011;1872;51.406;6.856;2024-01-11T13:46:25;36.10;;;22.43;;
3712;SDS011;1872;51.406;6.856;2024-01-11T13:48:50;32.87;;;22.97;;
3712;SDS011;1872;51.406;6.856;2024-01-11T13:51:16;32.33;;;21.33;;
3712;SDS011;1872;51.406;6.856;2024-01-11T13:53:42;39.70;;;22.53;;
3712;SDS011;1872;51.406;6.856;2024-01-11T13:56:08;36.27;;;21.20;;
3712;SDS011;1872;51.406;6.856;2024-01-11T13:58:34;34.23;;;23.13;;
3712;SDS011;1872;51.406;6.856;2024-01-11T14:01:00;33.47;;;21.87;;
3712;SDS011;1872;51.406;6.856;2024-01-11T14:03:26;29.80;;;21.10;;
3712;SDS011;1872;51.406;6.856;2024-01-11T14:05:52;31.47;;;20.50;;
3712;SDS011;1872;51.406;6.856;2024-01-11T14:08:17;35.33;;;20.63;;
3712;SDS011;1872;51.406;6.856;2024-01-11T14:10:43;30.00;;;19.60;;
3712;SDS011;1872;51.406;6.856;2024-01-11T14:13:09;33.23;;;21.33;;
3712;SDS011;1872;51.406;6.856;2024-01-11T14:15:35;30.97;;;20.70;;
3712;SDS011;1872;51.406;6.856;2024-01-11T14:18:00;30.27;;;20.00;;
3712;SDS011;1872;51.406;6.856;2024-01-11T14:20:26;26.37;;;17.00;;
3712;SDS011;1872;51.406;6.856;2024-01-11T14:22:52;28.03;;;20.17;;
3712;SDS011;1872;51.406;6.856;2024-01-11T14:25:20;36.37;;;22.83;;
3712;SDS011;1872;51.406;6.856;2024-01-11T14:27:49;34.30;;;20.77;;
3712;SDS011;1872;51.406;6.856;2024-01-11T14:30:15;35.33;;;21.07;;
3712;SDS011;1872;51.406;6.856;2024-01-11T14:32:41;32.30;;;21.03;;
3712;SDS011;1872;51.406;6.856;2024-01-11T14:35:08;37.83;;;19.80;;
3712;SDS011;1872;51.406;6.856;2024-01-11T14:37:35;33.80;;;19.00;;
3712;SDS011;1872;51.406;6.856;2024-01-11T14:40:02;34.03;;;19.63;;
3712;SDS011;1872;51.406;6.856;2024-01-11T14:42:29;33.83;;;19.30;;
3712;SDS011;1872;51.406;6.856;2024-01-11T14:44:55;29.77;;;18.37;;
3712;SDS011;1872;51.406;6.856;2024-01-11T14:47:21;30.70;;;18.83;;
3712;SDS011;1872;51.406;6.856;2024-01-11T14:49:47;32.27;;;20.17;;